Time;durP1;ratioP1;P1;durP2;ratioP2;P2;SDS_P1;SDS_P2;PMS_P1;PMS_P2;Temp;Humidity;BMP_temperature;BMP_pressure;BME280_temperature;BME280_humidity;BME280_pressure;Samples;Min_cycle;Max_cycle;Signal;HPM_P1;HPM_P2
2023/12/15 00:01:19;;;;;;;4.43;2.55;;;7.70;76.20;;;;;;4992149;28;20424;-59
2023/12/15 00:03:45;;;;;;;3.17;2.70;;;7.70;76.30;;;;;;5009405;28;20039;-59
2023/12/15 00:06:10;;;;;;;4.10;2.58;;;7.70;76.30;;;;;;5010543;28;20075;-60
2023/12/15 00:08:36;;;;;;;2.75;2.50;;;7.70;76.20;;;;;;5009597;28;20105;-59
2023/12/15 00:11:03;;;;;;;3.25;2.95;;;7.70;76.30;;;;;;5009970;28;20120;-58
2023/12/15 00:13:28;;;;;;;4.43;2.92;;;7.70;76.30;;;;;;5007606;28;20572;-59
2023/12/15 00:15:54;;;;;;;3.85;3.00;;;7.70;76.20;;;;;;5009082;28;20045;-60
2023/12/15 00:18:20;;;;;;;3.42;2.78;;;7.70;76.10;;;;;;5008778;28;20041;-61
2023/12/15 00:20:47;;;;;;;3.95;3.00;;;7.70;76.10;;;;;;5011988;28;20022;-60
2023/12/15 00:23:13;;;;;;;3.22;2.92;;;7.70;76.10;;;;;;5009679;28;20018;-61
2023/12/15 00:25:38;;;;;;;4.47;3.30;;;7.60;76.10;;;;;;5008985;28;20487;-60
2023/12/15 00:28:04;;;;;;;3.90;2.88;;;7.60;76.20;;;;;;5010719;28;20123;-60
2023/12/15 00:30:30;;;;;;;3.38;3.08;;;7.60;76.20;;;;;;5009830;28;20146;-60
2023/12/15 00:32:55;;;;;;;4.47;3.10;;;7.60;76.30;;;;;;5009463;28;20038;-59
2023/12/15 00:35:21;;;;;;;3.58;3.25;;;7.60;76.30;;;;;;5010082;28;20464;-59
2023/12/15 00:37:47;;;;;;;4.82;3.53;;;7.60;76.30;;;;;;5009287;28;20045;-59
2023/12/15 00:40:12;;;;;;;4.22;3.80;;;7.60;76.40;;;;;;5009007;28;20334;-60
2023/12/15 00:42:38;;;;;;;5.97;4.07;;;7.70;76.40;;;;;;5010872;28;20052;-60
2023/12/15 00:45:10;;;;;;;5.60;4.18;;;7.70;76.40;;;;;;4993063;28;20030;-60
2023/12/15 00:47:36;;;;;;;5.68;4.25;;;7.70;76.40;;;;;;5010195;28;20103;-60
2023/12/15 00:50:03;;;;;;;5.72;4.32;;;7.70;76.40;;;;;;5008896;28;20026;-60
2023/12/15 00:52:29;;;;;;;6.28;4.40;;;7.70;76.40;;;;;;5009074;28;20029;-60
2023/12/15 00:54:55;;;;;;;5.00;4.18;;;7.70;76.20;;;;;;5009999;28;20036;-61
2023/12/15 00:57:20;;;;;;;5.43;4.47;;;7.70;76.00;;;;;;5007296;28;20037;-60
2023/12/15 00:59:46;;;;;;;5.53;4.35;;;7.70;76.00;;;;;;5009327;28;20026;-61
2023/12/15 01:02:12;;;;;;;8.02;4.90;;;7.70;75.80;;;;;;4987096;28;20044;-60
2023/12/15 01:04:37;;;;;;;6.22;4.72;;;7.60;75.50;;;;;;5009995;28;20353;-59
2023/12/15 01:07:03;;;;;;;6.13;4.88;;;7.60;75.50;;;;;;5007978;28;20042;-60
2023/12/15 01:09:29;;;;;;;5.63;4.38;;;7.60;75.50;;;;;;5009918;28;20392;-60
2023/12/15 01:11:54;;;;;;;7.70;4.82;;;7.60;75.50;;;;;;5008963;28;20025;-60
2023/12/15 01:14:20;;;;;;;6.28;4.88;;;7.60;75.50;;;;;;5008987;28;20041;-60
2023/12/15 01:16:47;;;;;;;5.60;4.53;;;7.60;75.60;;;;;;5007884;28;20037;-60
2023/12/15 01:19:14;;;;;;;6.07;4.88;;;7.50;75.20;;;;;;4989878;28;20239;-60
2023/12/15 01:21:40;;;;;;;6.68;5.03;;;7.50;75.40;;;;;;5009294;28;20026;-60
2023/12/15 01:24:05;;;;;;;5.80;4.40;;;7.50;75.40;;;;;;4984218;28;20038;-60
2023/12/15 01:26:31;;;;;;;4.88;4.00;;;7.50;75.30;;;;;;5008504;28;20507;-60
2023/12/15 01:28:57;;;;;;;5.32;3.90;;;7.50;75.00;;;;;;5008522;28;20083;-60
2023/12/15 01:31:22;;;;;;;5.15;4.28;;;7.50;75.10;;;;;;5008689;28;20092;-60
2023/12/15 01:33:48;;;;;;;6.53;4.78;;;7.40;75.10;;;;;;5008150;28;20053;-59
2023/12/15 01:36:16;;;;;;;5.53;4.15;;;7.40;75.20;;;;;;5009049;28;20117;-61
2023/12/15 01:38:41;;;;;;;6.70;4.68;;;7.40;75.10;;;;;;5008213;28;20404;-60
2023/12/15 01:41:07;;;;;;;5.82;4.45;;;7.40;74.90;;;;;;5004766;28;20049;-60
2023/12/15 01:43:33;;;;;;;6.38;4.80;;;7.40;74.90;;;;;;5009963;28;20038;-59
2023/12/15 01:45:59;;;;;;;7.38;4.97;;;7.40;75.10;;;;;;5008465;28;20507;-60
2023/12/15 01:48:24;;;;;;;8.15;4.95;;;7.30;75.00;;;;;;5003695;28;20117;-60
2023/12/15 01:50:50;;;;;;;7.22;5.28;;;7.40;75.10;;;;;;5008557;28;20022;-60
2023/12/15 01:53:16;;;;;;;8.20;5.85;;;7.40;75.10;;;;;;5007051;28;20034;-60
2023/12/15 01:55:42;;;;;;;6.43;4.85;;;7.30;74.90;;;;;;4989850;28;20034;-60
2023/12/15 01:58:10;;;;;;;8.00;5.28;;;7.30;74.80;;;;;;5000715;28;20092;-59
2023/12/15 02:00:35;;;;;;;9.27;5.00;;;7.30;74.90;;;;;;5007963;28;20072;-60
2023/12/15 02:03:01;;;;;;;8.10;5.13;;;7.30;75.10;;;;;;5006832;28;20074;-62
2023/12/15 02:05:27;;;;;;;7.88;5.32;;;7.20;75.10;;;;;;5008123;28;20042;-60
2023/12/15 02:07:52;;;;;;;8.40;5.50;;;7.30;75.30;;;;;;5003834;28;20057;-60
2023/12/15 02:10:18;;;;;;;7.93;5.82;;;7.30;75.30;;;;;;4988202;28;20061;-61
2023/12/15 02:12:44;;;;;;;8.90;5.80;;;7.30;75.30;;;;;;5004491;28;20160;-60
2023/12/15 02:15:10;;;;;;;7.07;5.32;;;7.30;75.30;;;;;;5007782;28;20026;-59
2023/12/15 02:17:37;;;;;;;8.38;6.10;;;7.30;75.40;;;;;;5004097;28;20029;-61
2023/12/15 02:20:03;;;;;;;7.80;5.57;;;7.20;75.20;;;;;;5007285;28;20022;-61
2023/12/15 02:22:29;;;;;;;7.32;5.35;;;7.30;75.00;;;;;;5007233;28;20038;-61
2023/12/15 02:24:55;;;;;;;7.72;5.43;;;7.20;75.10;;;;;;4987446;28;20143;-61
2023/12/15 02:27:20;;;;;;;7.43;5.45;;;7.20;75.10;;;;;;5006767;28;20022;-61
2023/12/15 02:29:46;;;;;;;8.70;5.72;;;7.20;75.10;;;;;;4986465;28;20034;-61
2023/12/15 02:32:12;;;;;;;8.55;5.53;;;7.20;75.20;;;;;;5007580;28;20040;-61
2023/12/15 02:34:37;;;;;;;9.27;5.60;;;7.20;75.30;;;;;;5007403;28;20084;-61
2023/12/15 02:37:03;;;;;;;7.72;5.45;;;7.20;75.50;;;;;;5007995;28;20057;-60
2023/12/15 02:39:29;;;;;;;8.02;5.35;;;7.20;75.70;;;;;;5006724;28;20038;-61
2023/12/15 02:41:54;;;;;;;7.00;5.30;;;7.20;75.80;;;;;;5005684;28;20109;-60
2023/12/15 02:44:20;;;;;;;8.45;5.80;;;7.20;75.70;;;;;;5005039;28;20121;-61
2023/12/15 02:46:45;;;;;;;7.65;5.30;;;7.20;75.60;;;;;;4920527;28;20030;-60
2023/12/15 02:49:11;;;;;;;8.15;5.65;;;7.20;75.60;;;;;;5006565;28;20064;-61
2023/12/15 02:51:37;;;;;;;7.88;5.53;;;7.30;75.70;;;;;;5005461;28;20052;-60
2023/12/15 02:54:04;;;;;;;6.25;4.97;;;7.20;75.70;;;;;;5007193;28;20042;-60
2023/12/15 02:56:29;;;;;;;7.45;5.28;;;7.30;75.70;;;;;;5007019;28;20048;-59
2023/12/15 02:58:55;;;;;;;6.80;4.82;;;7.30;75.60;;;;;;5004452;28;20485;-61
2023/12/15 03:01:22;;;;;;;7.50;5.20;;;7.30;75.40;;;;;;5007049;28;20030;-60
2023/12/15 03:03:48;;;;;;;7.22;5.15;;;7.30;75.40;;;;;;5006537;28;20037;-61
2023/12/15 03:06:14;;;;;;;7.28;4.97;;;7.30;75.40;;;;;;5005641;28;20026;-60
2023/12/15 03:08:39;;;;;;;6.75;5.00;;;7.30;75.40;;;;;;5005215;28;20052;-60
2023/12/15 03:11:05;;;;;;;7.45;5.50;;;7.20;75.00;;;;;;5005470;28;20084;-60
2023/12/15 03:13:31;;;;;;;6.65;5.10;;;7.20;74.90;;;;;;5005433;28;20076;-60
2023/12/15 03:16:05;;;;;;;7.18;4.95;;;7.20;75.10;;;;;;5006121;28;20034;-61
2023/12/15 03:18:31;;;;;;;6.82;4.60;;;7.20;75.30;;;;;;5006657;28;20026;-60
2023/12/15 03:20:57;;;;;;;6.32;4.78;;;7.20;75.40;;;;;;5006094;28;20440;-63
2023/12/15 03:23:22;;;;;;;6.03;4.72;;;7.20;75.60;;;;;;5006159;28;20128;-62
2023/12/15 03:25:48;;;;;;;7.32;5.55;;;7.20;75.60;;;;;;5005864;28;20160;-62
2023/12/15 03:28:14;;;;;;;7.05;5.10;;;7.20;75.70;;;;;;5012030;28;20030;-61
2023/12/15 03:30:40;;;;;;;8.98;5.57;;;7.20;75.70;;;;;;5018592;28;20049;-62
2023/12/15 03:33:06;;;;;;;8.77;5.43;;;7.20;75.70;;;;;;5012537;28;20033;-60
2023/12/15 03:35:31;;;;;;;6.68;4.93;;;7.30;75.70;;;;;;5008214;28;20034;-61
2023/12/15 03:37:57;;;;;;;8.20;5.30;;;7.30;75.70;;;;;;5010489;28;20464;-61
2023/12/15 03:40:23;;;;;;;8.00;5.82;;;7.30;75.60;;;;;;5009972;28;20033;-61
2023/12/15 03:42:48;;;;;;;6.25;4.90;;;7.30;75.40;;;;;;5008609;28;20092;-60
2023/12/15 03:45:19;;;;;;;7.43;5.55;;;7.30;75.40;;;;;;4976051;28;20396;-62
2023/12/15 03:47:44;;;;;;;6.93;5.53;;;7.30;75.20;;;;;;5007907;28;20114;-60
2023/12/15 03:50:10;;;;;;;8.30;5.82;;;7.30;75.30;;;;;;5007817;28;20137;-60
2023/12/15 03:52:36;;;;;;;8.52;6.18;;;7.30;75.20;;;;;;5008032;28;20041;-60
2023/12/15 03:55:01;;;;;;;7.60;5.43;;;7.30;75.20;;;;;;5009181;28;20037;-59
2023/12/15 03:57:27;;;;;;;9.45;5.78;;;7.30;75.20;;;;;;5001983;28;20033;-61
2023/12/15 03:59:53;;;;;;;6.78;5.22;;;7.30;75.20;;;;;;5007399;28;20026;-60
2023/12/15 04:02:20;;;;;;;8.10;5.88;;;7.40;75.10;;;;;;5007753;28;20075;-60
2023/12/15 04:04:46;;;;;;;6.85;5.15;;;7.30;75.00;;;;;;5007569;28;20045;-62
2023/12/15 04:07:12;;;;;;;7.93;6.03;;;7.30;75.00;;;;;;5008288;28;20519;-60
2023/12/15 04:09:38;;;;;;;8.25;5.70;;;7.30;75.00;;;;;;5006861;28;20022;-61
2023/12/15 04:12:04;;;;;;;8.23;5.32;;;7.30;74.90;;;;;;5006695;28;20014;-60
2023/12/15 04:14:32;;;;;;;8.00;5.97;;;7.30;74.80;;;;;;5007865;28;21258;-60
2023/12/15 04:16:57;;;;;;;6.13;5.30;;;7.30;74.90;;;;;;5003713;28;20034;-62
2023/12/15 04:19:23;;;;;;;7.15;5.88;;;7.30;74.80;;;;;;5007155;28;20538;-60
2023/12/15 04:21:49;;;;;;;7.93;5.40;;;7.30;74.60;;;;;;5007176;28;20026;-62
2023/12/15 04:24:14;;;;;;;7.68;5.35;;;7.20;74.60;;;;;;5008260;28;20037;-62
2023/12/15 04:26:40;;;;;;;10.02;5.95;;;7.20;74.70;;;;;;5009103;28;20385;-62
2023/12/15 04:29:05;;;;;;;7.72;5.68;;;7.20;74.50;;;;;;5007273;28;20025;-61
2023/12/15 04:31:31;;;;;;;7.85;5.45;;;7.20;74.50;;;;;;4987955;28;20073;-61
2023/12/15 04:33:57;;;;;;;6.80;5.38;;;7.10;74.60;;;;;;5006890;28;20034;-62
2023/12/15 04:36:22;;;;;;;7.78;5.65;;;7.10;74.70;;;;;;5007307;28;20029;-61
2023/12/15 04:38:48;;;;;;;8.13;5.53;;;7.10;74.80;;;;;;5007870;28;20092;-61
2023/12/15 04:41:25;;;;;;;8.50;6.47;;;7.20;74.90;;;;;;4967658;28;1146612;-61
2023/12/15 04:43:51;;;;;;;10.73;6.80;;;7.10;74.80;;;;;;5008449;28;20300;-61
2023/12/15 04:46:25;;;;;;;9.13;7.00;;;7.10;74.80;;;;;;4910236;28;20060;-61
2023/12/15 04:48:51;;;;;;;11.02;7.65;;;7.10;74.80;;;;;;5007907;28;20044;-61
2023/12/15 04:51:16;;;;;;;10.07;7.00;;;7.20;74.90;;;;;;5008248;28;20034;-61
2023/12/15 04:53:43;;;;;;;10.48;7.00;;;7.20;74.90;;;;;;5007674;28;20025;-61
2023/12/15 04:56:09;;;;;;;8.40;6.32;;;7.10;74.80;;;;;;5007088;28;20060;-61
2023/12/15 04:58:37;;;;;;;11.73;6.82;;;7.10;74.80;;;;;;5008448;28;20062;-60
2023/12/15 05:01:02;;;;;;;12.15;6.53;;;7.10;74.80;;;;;;5007749;28;20113;-60
2023/12/15 05:03:28;;;;;;;9.63;6.93;;;7.10;74.80;;;;;;5007354;28;20113;-60
2023/12/15 05:05:54;;;;;;;8.73;6.68;;;7.10;74.80;;;;;;5007663;28;20057;-61
2023/12/15 05:08:19;;;;;;;9.93;7.25;;;7.10;74.90;;;;;;5009291;28;20029;-61
2023/12/15 05:10:45;;;;;;;9.32;6.60;;;7.10;75.00;;;;;;5007950;28;20037;-61
2023/12/15 05:13:11;;;;;;;9.65;6.28;;;7.10;75.10;;;;;;5006843;28;20882;-60
2023/12/15 05:15:37;;;;;;;9.68;7.03;;;7.10;75.00;;;;;;4986850;28;20026;-59
2023/12/15 05:18:03;;;;;;;10.40;6.78;;;7.10;74.90;;;;;;5007086;28;20030;-62
2023/12/15 05:20:29;;;;;;;12.70;7.75;;;7.10;74.90;;;;;;5007397;28;20512;-62
2023/12/15 05:22:54;;;;;;;10.23;7.28;;;7.10;75.00;;;;;;5007357;28;20104;-60
2023/12/15 05:25:20;;;;;;;11.25;6.55;;;7.10;75.00;;;;;;5007648;28;20064;-60
2023/12/15 05:27:46;;;;;;;8.85;6.63;;;7.10;75.10;;;;;;5004427;28;20530;-61
2023/12/15 05:30:11;;;;;;;11.82;7.78;;;7.10;75.10;;;;;;5006753;28;20053;-60
2023/12/15 05:32:38;;;;;;;12.98;8.10;;;7.10;75.10;;;;;;5009279;28;20030;-60
2023/12/15 05:35:04;;;;;;;11.38;7.22;;;7.10;75.10;;;;;;5007938;28;20049;-62
2023/12/15 05:37:30;;;;;;;11.02;8.18;;;7.10;75.00;;;;;;5001811;28;20107;-60
2023/12/15 05:39:57;;;;;;;9.98;7.53;;;7.10;74.90;;;;;;5004199;28;20165;-60
2023/12/15 05:42:24;;;;;;;10.88;7.50;;;7.10;74.80;;;;;;5008430;28;20049;-61
2023/12/15 05:44:50;;;;;;;12.18;7.47;;;7.10;74.70;;;;;;5007048;28;20037;-59
2023/12/15 05:47:17;;;;;;;10.05;7.05;;;7.10;74.60;;;;;;4898861;28;20029;-62
2023/12/15 05:49:42;;;;;;;11.73;7.75;;;7.00;74.50;;;;;;5004521;28;20025;-60
2023/12/15 05:52:11;;;;;;;9.68;6.90;;;7.00;74.60;;;;;;5007313;28;20029;-62
2023/12/15 05:54:41;;;;;;;10.63;7.57;;;7.00;74.70;;;;;;5007576;28;20377;-62
2023/12/15 05:57:07;;;;;;;10.57;7.72;;;7.00;74.90;;;;;;5006783;28;20095;-63
2023/12/15 05:59:32;;;;;;;10.88;7.72;;;7.00;75.00;;;;;;5003589;28;20026;-60
2023/12/15 06:01:58;;;;;;;12.05;8.50;;;7.00;75.10;;;;;;5006286;28;20034;-61
2023/12/15 06:04:24;;;;;;;11.75;8.07;;;7.00;75.10;;;;;;5006982;28;20045;-61
2023/12/15 06:06:50;;;;;;;13.13;8.50;;;7.00;75.10;;;;;;5006135;28;20613;-61
2023/12/15 06:09:16;;;;;;;12.48;8.30;;;7.00;75.10;;;;;;5008580;28;20022;-60
2023/12/15 06:11:42;;;;;;;13.25;8.15;;;7.00;75.10;;;;;;5013897;28;20057;-60
2023/12/15 06:14:11;;;;;;;11.40;7.85;;;7.00;75.10;;;;;;5004828;28;20380;-60
2023/12/15 06:16:37;;;;;;;11.25;7.75;;;7.00;75.00;;;;;;5006888;28;20037;-60
2023/12/15 06:19:03;;;;;;;17.00;7.65;;;7.00;75.00;;;;;;4989674;28;20022;-61
2023/12/15 06:21:28;;;;;;;10.38;7.53;;;6.90;75.00;;;;;;5007429;28;20018;-62
2023/12/15 06:23:55;;;;;;;13.77;8.27;;;7.00;75.10;;;;;;5006930;28;20030;-60
2023/12/15 06:26:25;;;;;;;14.88;8.43;;;7.00;74.90;;;;;;4988963;28;20025;-60
2023/12/15 06:28:53;;;;;;;11.48;8.13;;;7.00;74.80;;;;;;5006937;28;20621;-60
2023/12/15 06:31:19;;;;;;;12.10;8.27;;;6.90;74.70;;;;;;5008493;28;20357;-60
2023/12/15 06:33:44;;;;;;;12.10;8.10;;;6.90;74.80;;;;;;5007336;28;20017;-60
2023/12/15 06:36:11;;;;;;;12.07;8.25;;;6.90;75.00;;;;;;5006996;28;20025;-61
2023/12/15 06:38:37;;;;;;;11.15;7.93;;;6.90;75.20;;;;;;5003941;28;20552;-59
2023/12/15 06:41:06;;;;;;;11.43;7.88;;;6.90;75.20;;;;;;5002403;28;20048;-61
2023/12/15 06:43:32;;;;;;;13.30;8.60;;;6.90;75.20;;;;;;5006879;28;20049;-61
2023/12/15 06:45:58;;;;;;;14.15;8.43;;;6.90;75.20;;;;;;5005504;28;20030;-61
2023/12/15 06:48:24;;;;;;;12.50;8.38;;;6.90;75.20;;;;;;5002484;28;20076;-60
2023/12/15 06:50:49;;;;;;;13.68;8.15;;;6.90;75.20;;;;;;5004382;28;20025;-61
2023/12/15 06:53:17;;;;;;;12.80;8.35;;;7.00;75.20;;;;;;5002665;28;20026;-60
2023/12/15 06:55:43;;;;;;;12.20;7.95;;;7.00;75.20;;;;;;5005114;28;20441;-61
2023/12/15 06:58:08;;;;;;;12.85;7.68;;;7.00;75.20;;;;;;5006476;28;20124;-61
2023/12/15 07:00:34;;;;;;;12.30;7.63;;;7.00;75.20;;;;;;5006031;28;20420;-61
2023/12/15 07:03:00;;;;;;;10.75;8.00;;;7.00;75.20;;;;;;5004899;28;20029;-61
2023/12/15 07:05:25;;;;;;;11.93;8.35;;;7.00;75.20;;;;;;5006226;28;20033;-61
2023/12/15 07:07:51;;;;;;;15.30;8.32;;;7.00;75.20;;;;;;5006374;28;20030;-61
2023/12/15 07:10:17;;;;;;;11.40;7.85;;;7.00;75.20;;;;;;5007479;28;20076;-60
2023/12/15 07:12:43;;;;;;;12.77;7.78;;;7.00;75.30;;;;;;5006265;28;20132;-61
2023/12/15 07:15:09;;;;;;;11.10;7.93;;;7.00;75.90;;;;;;5002281;28;20110;-61
2023/12/15 07:17:34;;;;;;;12.82;8.05;;;7.00;75.10;;;;;;5004551;28;20404;-60
2023/12/15 07:20:00;;;;;;;11.35;7.38;;;7.00;75.10;;;;;;5007463;28;20037;-60
2023/12/15 07:22:26;;;;;;;11.00;7.82;;;7.00;75.00;;;;;;4984981;28;20026;-63
2023/12/15 07:24:51;;;;;;;12.68;8.82;;;7.00;75.10;;;;;;5006185;28;20037;-62
2023/12/15 07:27:17;;;;;;;13.18;7.38;;;7.00;75.10;;;;;;5006542;28;20033;-62
2023/12/15 07:29:42;;;;;;;11.27;7.70;;;7.00;75.20;;;;;;5005325;28;20041;-62
2023/12/15 07:32:08;;;;;;;12.07;7.45;;;7.00;75.30;;;;;;5002797;28;20041;-62
2023/12/15 07:34:34;;;;;;;11.43;8.02;;;7.00;75.40;;;;;;4986189;28;20029;-62
2023/12/15 07:36:59;;;;;;;11.30;7.53;;;7.00;75.40;;;;;;5006890;28;20041;-62
2023/12/15 07:39:25;;;;;;;11.13;7.70;;;7.10;75.40;;;;;;5006143;28;20475;-63
2023/12/15 07:41:51;;;;;;;11.43;7.57;;;7.00;75.30;;;;;;5004714;28;20049;-63
2023/12/15 07:44:17;;;;;;;12.65;6.80;;;7.10;75.20;;;;;;4987885;28;20117;-62
2023/12/15 07:46:43;;;;;;;11.23;7.75;;;7.10;75.10;;;;;;5005660;28;20419;-62
2023/12/15 07:49:09;;;;;;;10.50;7.28;;;7.10;75.10;;;;;;5002730;28;20109;-62
2023/12/15 07:51:35;;;;;;;11.38;7.40;;;7.10;75.20;;;;;;5002779;28;20054;-64
2023/12/15 07:54:00;;;;;;;10.57;7.45;;;7.10;75.20;;;;;;5006489;28;20440;-64
2023/12/15 07:56:28;;;;;;;10.85;7.72;;;7.10;75.20;;;;;;5002190;28;20092;-62
2023/12/15 07:58:55;;;;;;;11.95;7.55;;;7.10;75.40;;;;;;5001851;28;20033;-63
2023/12/15 08:01:23;;;;;;;11.63;8.02;;;7.10;75.10;;;;;;5004467;28;20022;-62
2023/12/15 08:03:52;;;;;;;11.70;7.18;;;7.10;75.10;;;;;;5001989;28;20038;-64
2023/12/15 08:06:18;;;;;;;10.80;7.10;;;7.10;75.10;;;;;;5005872;28;20033;-62
2023/12/15 08:08:45;;;;;;;10.38;7.18;;;7.10;75.20;;;;;;5001001;28;20111;-63
2023/12/15 08:11:11;;;;;;;11.23;7.38;;;7.10;75.20;;;;;;5006560;28;20026;-63
2023/12/15 08:13:38;;;;;;;13.20;8.30;;;7.00;75.10;;;;;;5002909;28;20057;-62
2023/12/15 08:16:04;;;;;;;11.48;7.88;;;7.10;75.10;;;;;;5003151;28;20057;-62
2023/12/15 08:18:30;;;;;;;16.10;9.00;;;7.00;75.20;;;;;;5000973;28;20091;-62
2023/12/15 08:20:57;;;;;;;13.48;8.50;;;7.00;75.20;;;;;;5006882;28;20061;-62
2023/12/15 08:23:22;;;;;;;15.15;8.13;;;7.00;75.20;;;;;;5009006;28;20107;-63
2023/12/15 08:25:48;;;;;;;11.88;7.47;;;7.00;75.30;;;;;;5009458;28;20416;-63
2023/12/15 08:28:14;;;;;;;10.65;7.53;;;7.00;75.40;;;;;;5008630;28;20036;-63
2023/12/15 08:30:40;;;;;;;10.75;6.82;;;7.00;75.40;;;;;;5009644;28;20018;-62
2023/12/15 08:33:05;;;;;;;11.38;7.65;;;7.00;75.40;;;;;;5006038;28;20034;-63
2023/12/15 08:35:31;;;;;;;10.60;6.97;;;7.10;75.60;;;;;;5009614;28;20040;-63
2023/12/15 08:37:57;;;;;;;11.75;7.70;;;7.10;75.50;;;;;;5008887;28;20037;-62
2023/12/15 08:40:24;;;;;;;9.65;7.15;;;7.10;75.20;;;;;;5007409;28;20050;-64
2023/12/15 08:42:49;;;;;;;10.13;6.65;;;7.10;74.90;;;;;;5008685;28;20100;-63
2023/12/15 08:45:16;;;;;;;10.98;6.68;;;7.10;75.10;;;;;;5006397;28;20027;-62
2023/12/15 08:47:42;;;;;;;12.43;7.10;;;7.10;75.10;;;;;;5009274;28;20034;-63
2023/12/15 08:50:08;;;;;;;8.50;6.45;;;7.10;75.20;;;;;;4990948;28;20085;-63
2023/12/15 08:52:34;;;;;;;13.75;6.70;;;7.10;75.20;;;;;;5008392;28;20523;-63
2023/12/15 08:55:00;;;;;;;8.40;6.45;;;7.10;75.20;;;;;;5008372;28;20079;-63
2023/12/15 08:57:25;;;;;;;9.90;6.40;;;7.20;75.30;;;;;;5003628;28;20061;-63
2023/12/15 08:59:51;;;;;;;10.70;6.93;;;7.30;75.50;;;;;;5003699;28;20030;-64
2023/12/15 09:02:17;;;;;;;8.52;6.38;;;7.30;75.40;;;;;;5004739;28;20054;-64
2023/12/15 09:04:43;;;;;;;8.98;6.35;;;7.30;75.30;;;;;;5009629;28;20092;-62
2023/12/15 09:07:09;;;;;;;9.82;6.47;;;7.30;75.20;;;;;;5008575;28;20030;-62
2023/12/15 09:09:35;;;;;;;8.88;6.05;;;7.40;75.20;;;;;;5009031;28;20036;-63
2023/12/15 09:12:01;;;;;;;8.68;5.95;;;7.40;75.10;;;;;;5006789;28;20025;-62
2023/12/15 09:14:28;;;;;;;7.82;5.65;;;7.40;75.00;;;;;;5005912;28;20034;-62
2023/12/15 09:16:56;;;;;;;7.97;5.47;;;7.40;75.10;;;;;;5005780;28;20037;-63
2023/12/15 09:19:24;;;;;;;11.05;5.97;;;7.40;74.90;;;;;;5008551;28;20870;-63
2023/12/15 09:21:50;;;;;;;12.43;6.25;;;7.50;75.00;;;;;;5010076;28;20030;-64
2023/12/15 09:24:17;;;;;;;9.30;6.00;;;7.50;75.00;;;;;;5009505;28;20022;-63
2023/12/15 09:26:44;;;;;;;11.35;6.55;;;7.50;74.80;;;;;;4990818;28;20049;-62
2023/12/15 09:29:10;;;;;;;8.90;6.30;;;7.50;74.80;;;;;;5006132;28;20029;-67
2023/12/15 09:31:36;;;;;;;8.27;6.05;;;7.50;74.80;;;;;;5006120;28;20022;-63
2023/12/15 09:34:03;;;;;;;8.23;6.13;;;7.50;74.80;;;;;;5007929;28;20022;-62
2023/12/15 09:36:28;;;;;;;7.75;6.35;;;7.50;74.90;;;;;;5008256;28;20040;-62
2023/12/15 09:38:54;;;;;;;9.18;5.72;;;7.50;75.00;;;;;;4990633;28;20404;-62
2023/12/15 09:41:20;;;;;;;8.55;6.50;;;7.50;74.80;;;;;;4990194;28;20235;-63
2023/12/15 09:43:46;;;;;;;10.50;5.63;;;7.50;74.60;;;;;;5003077;28;20500;-64
2023/12/15 09:46:11;;;;;;;9.60;6.45;;;7.50;74.60;;;;;;4914589;28;20037;-63
2023/12/15 09:48:38;;;;;;;10.32;6.07;;;7.60;74.70;;;;;;5008100;28;20034;-63
2023/12/15 09:51:09;;;;;;;12.18;5.78;;;7.50;74.70;;;;;;5003675;28;20072;-63
2023/12/15 09:53:36;;;;;;;9.13;5.97;;;7.60;74.70;;;;;;5007240;28;20496;-62
2023/12/15 09:56:03;;;;;;;8.85;6.03;;;7.60;74.90;;;;;;5004716;28;20461;-62
2023/12/15 09:58:28;;;;;;;8.07;6.30;;;7.60;74.90;;;;;;5006681;28;20660;-62
2023/12/15 10:00:54;;;;;;;8.38;5.80;;;7.60;74.90;;;;;;5000188;28;20040;-61
2023/12/15 10:03:20;;;;;;;9.13;6.43;;;7.70;75.00;;;;;;5007539;28;20593;-62
2023/12/15 10:05:46;;;;;;;8.45;6.00;;;7.70;74.80;;;;;;5006362;28;20025;-63
2023/12/15 10:08:12;;;;;;;8.40;5.70;;;7.80;74.70;;;;;;5005963;28;20385;-63
2023/12/15 10:10:38;;;;;;;14.60;6.22;;;7.80;74.90;;;;;;5008279;28;20025;-62
2023/12/15 10:13:04;;;;;;;10.35;6.22;;;7.80;75.00;;;;;;5007322;28;20079;-62
2023/12/15 10:15:29;;;;;;;9.48;6.43;;;7.90;75.20;;;;;;5006874;28;20033;-62
2023/12/15 10:17:55;;;;;;;11.05;6.88;;;8.00;75.10;;;;;;5004454;28;20049;-62
2023/12/15 10:20:23;;;;;;;7.55;5.78;;;8.00;74.90;;;;;;5007022;28;20114;-62
2023/12/15 10:23:03;;;;;;;8.63;5.80;;;8.10;74.60;;;;;;5000251;28;20030;-62
2023/12/15 10:25:29;;;;;;;8.25;6.00;;;8.10;74.20;;;;;;5006325;28;20377;-63
2023/12/15 10:27:55;;;;;;;8.10;5.72;;;8.20;74.40;;;;;;5004938;28;20029;-62
2023/12/15 10:30:20;;;;;;;9.38;6.05;;;8.20;74.50;;;;;;5002593;28;20041;-63
2023/12/15 10:32:47;;;;;;;6.82;5.65;;;8.30;75.10;;;;;;5006219;28;20026;-62
2023/12/15 10:35:13;;;;;;;9.48;5.68;;;8.30;74.20;;;;;;5006980;28;20021;-62
2023/12/15 10:37:41;;;;;;;9.35;6.78;;;8.40;73.90;;;;;;5002312;28;20677;-63
2023/12/15 10:40:08;;;;;;;8.85;6.50;;;8.40;73.90;;;;;;5001936;28;20026;-62
2023/12/15 10:42:35;;;;;;;12.52;6.63;;;8.40;73.60;;;;;;5006101;28;20042;-64
2023/12/15 10:45:05;;;;;;;8.35;6.20;;;8.40;73.30;;;;;;4912379;28;20053;-62
2023/12/15 10:47:32;;;;;;;8.48;6.35;;;8.50;73.30;;;;;;5006018;28;20030;-63
2023/12/15 10:49:59;;;;;;;8.80;6.35;;;8.40;73.30;;;;;;5007205;28;20053;-62
2023/12/15 10:52:26;;;;;;;7.78;5.47;;;8.40;73.20;;;;;;5006429;28;20026;-62
2023/12/15 10:54:52;;;;;;;7.70;6.07;;;8.40;73.20;;;;;;5007016;28;20029;-62
2023/12/15 10:57:19;;;;;;;7.35;5.32;;;8.40;73.30;;;;;;5006892;28;20040;-62
2023/12/15 10:59:47;;;;;;;8.52;5.60;;;8.40;73.30;;;;;;5005901;28;20057;-62
2023/12/15 11:02:15;;;;;;;7.85;6.10;;;8.40;73.30;;;;;;4988477;28;20037;-62
2023/12/15 11:04:41;;;;;;;9.35;5.82;;;8.40;73.40;;;;;;5002618;28;20436;-63
2023/12/15 11:07:08;;;;;;;8.38;5.53;;;8.40;73.50;;;;;;5004552;28;20061;-62
2023/12/15 11:09:35;;;;;;;7.70;5.70;;;8.40;73.50;;;;;;5006067;28;20716;-62
2023/12/15 11:12:30;;;;;;;8.77;6.32;;;8.50;73.50;;;;;;5005571;28;20072;-62
2023/12/15 11:15:02;;;;;;;8.07;5.80;;;8.50;73.30;;;;;;5004778;28;20905;-64
2023/12/15 11:17:29;;;;;;;7.72;5.63;;;8.50;73.50;;;;;;5005792;28;20038;-63
2023/12/15 11:20:08;;;;;;;7.13;5.38;;;8.50;73.60;;;;;;5006057;28;20028;-63
2023/12/15 11:22:51;;;;;;;7.05;5.38;;;8.50;73.40;;;;;;5003928;28;20026;-62
2023/12/15 11:25:19;;;;;;;7.97;5.55;;;8.50;73.20;;;;;;5003100;28;20041;-62
2023/12/15 11:28:08;;;;;;;7.57;5.93;;;8.50;73.10;;;;;;5000484;28;20569;-63
2023/12/15 11:30:41;;;;;;;6.63;4.80;;;8.40;72.90;;;;;;5003043;28;20030;-64
2023/12/15 11:33:40;;;;;;;7.85;5.50;;;8.40;73.00;;;;;;5006090;28;20080;-62
2023/12/15 11:36:08;;;;;;;7.38;4.80;;;8.30;73.00;;;;;;5003793;28;20042;-62
2023/12/15 11:38:35;;;;;;;6.90;5.03;;;8.30;73.30;;;;;;5005614;28;20040;-62
2023/12/15 11:41:04;;;;;;;7.22;5.63;;;8.30;73.60;;;;;;5005409;28;20037;-64
2023/12/15 11:43:31;;;;;;;7.68;5.05;;;8.30;74.20;;;;;;5005025;28;20026;-62
2023/12/15 11:45:57;;;;;;;8.05;5.53;;;8.30;73.80;;;;;;4904307;28;20034;-61
2023/12/15 11:48:24;;;;;;;8.40;5.82;;;8.30;73.80;;;;;;5002771;28;20641;-62
2023/12/15 11:50:50;;;;;;;10.57;5.53;;;8.30;73.90;;;;;;5004215;28;20459;-62
2023/12/15 11:53:17;;;;;;;6.30;5.35;;;8.30;74.20;;;;;;5004344;28;20026;-63
2023/12/15 11:55:45;;;;;;;7.28;5.57;;;8.30;74.20;;;;;;5005040;28;20022;-62
2023/12/15 11:58:15;;;;;;;8.90;6.18;;;8.40;74.20;;;;;;5009079;28;20033;-62
2023/12/15 12:00:41;;;;;;;6.82;5.45;;;8.40;74.10;;;;;;5009396;28;20808;-62
2023/12/15 12:03:09;;;;;;;7.55;6.10;;;8.40;74.10;;;;;;5008964;28;20076;-62
2023/12/15 12:05:35;;;;;;;7.95;6.10;;;8.40;74.10;;;;;;5003603;28;20549;-62
2023/12/15 12:08:01;;;;;;;6.95;5.45;;;8.50;74.10;;;;;;4989211;28;20647;-63
2023/12/15 12:10:40;;;;;;;8.95;6.05;;;8.50;74.00;;;;;;5009130;28;20030;-63
2023/12/15 12:13:07;;;;;;;7.07;5.43;;;8.60;74.00;;;;;;5008098;28;20141;-62
2023/12/15 12:15:52;;;;;;;7.65;5.47;;;8.60;74.00;;;;;;5009008;28;20104;-62
2023/12/15 12:18:24;;;;;;;;;;;8.60;73.80;;;;;;5008231;28;20468;-63
2023/12/15 12:20:55;;;;;;;8.25;5.40;;;8.70;73.70;;;;;;5008498;28;20003;-62
2023/12/15 12:23:28;;;;;;;9.13;6.03;;;8.70;73.60;;;;;;5007522;28;20045;-62
2023/12/15 12:25:58;;;;;;;10.30;6.00;;;8.70;73.50;;;;;;5007887;28;20388;-61
2023/12/15 12:28:38;;;;;;;7.68;6.05;;;8.70;73.40;;;;;;5007554;28;20061;-64
2023/12/15 12:31:04;;;;;;;7.35;5.65;;;8.70;73.20;;;;;;5007460;28;20026;-62
2023/12/15 12:33:30;;;;;;;8.07;5.40;;;8.70;73.40;;;;;;5008416;28;20117;-62
2023/12/15 12:35:56;;;;;;;11.93;6.50;;;8.70;74.00;;;;;;5008359;28;20084;-63
2023/12/15 12:38:22;;;;;;;10.13;6.72;;;8.70;73.40;;;;;;5009045;28;20080;-63
2023/12/15 12:40:48;;;;;;;10.13;6.57;;;8.70;73.50;;;;;;5007503;28;20041;-63
2023/12/15 12:43:13;;;;;;;9.02;5.80;;;8.60;73.40;;;;;;5008197;28;20057;-63
2023/12/15 12:45:39;;;;;;;9.15;5.68;;;8.70;73.40;;;;;;5001060;28;20027;-62
2023/12/15 12:48:05;;;;;;;7.80;5.85;;;8.60;73.40;;;;;;4927091;28;20388;-62
2023/12/15 12:50:31;;;;;;;11.20;6.22;;;8.70;73.60;;;;;;5006403;28;20314;-63